Freeman, Colorado
Current Conditions -  °F | °C
As of 11:30 PM on Monday 20 Oct 2014 (Local Time) from KRCV Reporting Station
Broken Clouds Broken Clouds  
Wind Chill: 40°   Ceiling: 8000
Heat Index: 45°   Visibility: 10mi
Dew Point: 34°   Wind: 8mph
Humidity: 66%   Direction: 290°WNW
Pressure: 30.28"   Gusts: NA
Location:  37.6359°N, 106.449°W
Report Text: KRCV 210530Z AUTO 29007KT 10SM BKN080 07/01 A3028 RMK AO2 T00700010
Loading
Personal Weather Stations






























Interactive Weather Map
Tropical Storm Tracking
New forecast layout! Learn more

10-Day Weather Forecast

Advertisements
Track Severe Weather on mobile